Terminal Aerodrome Forecast
Issued by NWS Tampa Bay Area, FL

Home | Current Version | Previous Version | Text Only | Print | Product List | Glossary Off
Versions: 1 2 3 4 5 6 7 8 9 10 11 12

965
FTUS42 KTBW 130530
TAFFMY
TAF
KFMY 130530Z 1306/1406 34007KT P6SM SKC
     FM130900 01006KT P6SM SKC
     FM132100 31007KT P6SM SKC
     FM140100 00000KT P6SM SKC=

USA.gov is the U.S. government's official web portal to all federal, state and local government web resources and services.